sensor_id;sensor_type;location;lat;lon;timestamp;pressure;altitude;pressure_sealevel;temperature;humidity
16190;BME280;41754;51.498;7.540;2023-04-27T00:01:09;100716.19;;;5.24;61.62
16190;BME280;41754;51.498;7.540;2023-04-27T00:03:38;100718.25;;;5.02;62.43
16190;BME280;41754;51.498;7.540;2023-04-27T00:06:08;100715.84;;;5.58;60.53
16190;BME280;41754;51.498;7.540;2023-04-27T00:08:36;100710.88;;;5.49;60.64
16190;BME280;41754;51.498;7.540;2023-04-27T00:11:04;100716.84;;;5.41;61.29
16190;BME280;41754;51.498;7.540;2023-04-27T00:13:32;100713.47;;;5.29;62.05
16190;BME280;41754;51.498;7.540;2023-04-27T00:16:00;100720.16;;;5.53;61.06
16190;BME280;41754;51.498;7.540;2023-04-27T00:18:29;100722.03;;;5.38;61.91
16190;BME280;41754;51.498;7.540;2023-04-27T00:20:58;100724.72;;;5.33;61.90
16190;BME280;41754;51.498;7.540;2023-04-27T00:23:28;100720.72;;;5.50;60.97
16190;BME280;41754;51.498;7.540;2023-04-27T00:25:56;100720.09;;;5.38;61.69
16190;BME280;41754;51.498;7.540;2023-04-27T00:28:24;100713.03;;;5.42;61.13
16190;BME280;41754;51.498;7.540;2023-04-27T00:30:52;100725.69;;;5.16;61.78
16190;BME280;41754;51.498;7.540;2023-04-27T00:33:24;100716.78;;;5.31;61.08
16190;BME280;41754;51.498;7.540;2023-04-27T00:35:53;100719.88;;;4.98;63.05
16190;BME280;41754;51.498;7.540;2023-04-27T00:38:21;100720.69;;;5.03;63.16
16190;BME280;41754;51.498;7.540;2023-04-27T00:40:50;100720.09;;;4.91;63.10
16190;BME280;41754;51.498;7.540;2023-04-27T00:43:19;100722.00;;;4.90;63.00
16190;BME280;41754;51.498;7.540;2023-04-27T00:45:47;100720.00;;;4.81;63.71
16190;BME280;41754;51.498;7.540;2023-04-27T00:48:15;100728.56;;;4.94;63.05
16190;BME280;41754;51.498;7.540;2023-04-27T00:50:45;100729.22;;;5.12;61.77
16190;BME280;41754;51.498;7.540;2023-04-27T00:53:13;100731.66;;;5.08;62.15
16190;BME280;41754;51.498;7.540;2023-04-27T00:55:42;100735.13;;;4.99;62.36
16190;BME280;41754;51.498;7.540;2023-04-27T00:58:11;100740.97;;;4.75;63.71
16190;BME280;41754;51.498;7.540;2023-04-27T01:00:39;100742.38;;;4.46;64.85
16190;BME280;41754;51.498;7.540;2023-04-27T01:03:10;100737.50;;;3.94;66.04
16190;BME280;41754;51.498;7.540;2023-04-27T01:05:38;100749.69;;;4.13;66.21
16190;BME280;41754;51.498;7.540;2023-04-27T01:08:07;100743.91;;;4.36;65.25
16190;BME280;41754;51.498;7.540;2023-04-27T01:10:35;100742.28;;;4.35;65.23
16190;BME280;41754;51.498;7.540;2023-04-27T01:13:04;100751.84;;;4.38;64.48
16190;BME280;41754;51.498;7.540;2023-04-27T01:15:33;100741.22;;;4.42;64.82
16190;BME280;41754;51.498;7.540;2023-04-27T01:18:01;100746.09;;;4.34;65.21
16190;BME280;41754;51.498;7.540;2023-04-27T01:20:30;100752.34;;;4.35;65.34
16190;BME280;41754;51.498;7.540;2023-04-27T01:22:58;100756.97;;;4.34;64.89
16190;BME280;41754;51.498;7.540;2023-04-27T01:25:27;100756.25;;;4.17;65.66
16190;BME280;41754;51.498;7.540;2023-04-27T01:27:55;100759.50;;;4.14;66.18
16190;BME280;41754;51.498;7.540;2023-04-27T01:30:23;100769.41;;;4.25;66.02
16190;BME280;41754;51.498;7.540;2023-04-27T01:32:54;100766.13;;;4.23;65.05
16190;BME280;41754;51.498;7.540;2023-04-27T01:35:22;100765.38;;;4.06;66.92
16190;BME280;41754;51.498;7.540;2023-04-27T01:37:53;100763.88;;;4.15;66.49
16190;BME280;41754;51.498;7.540;2023-04-27T01:40:21;100766.22;;;4.06;67.19
16190;BME280;41754;51.498;7.540;2023-04-27T01:42:50;100776.38;;;3.89;67.80
16190;BME280;41754;51.498;7.540;2023-04-27T01:45:18;100767.00;;;4.02;67.60
16190;BME280;41754;51.498;7.540;2023-04-27T01:47:46;100756.88;;;3.97;67.95
16190;BME280;41754;51.498;7.540;2023-04-27T01:50:14;100768.78;;;3.91;67.60
16190;BME280;41754;51.498;7.540;2023-04-27T01:52:42;100770.97;;;3.94;67.89
16190;BME280;41754;51.498;7.540;2023-04-27T01:55:09;100769.59;;;3.92;67.50
16190;BME280;41754;51.498;7.540;2023-04-27T01:57:37;100774.22;;;3.91;67.18
16190;BME280;41754;51.498;7.540;2023-04-27T02:00:08;100772.97;;;3.99;67.09
16190;BME280;41754;51.498;7.540;2023-04-27T02:02:50;100774.38;;;3.58;68.14
16190;BME280;41754;51.498;7.540;2023-04-27T02:05:19;100768.34;;;3.77;67.66
16190;BME280;41754;51.498;7.540;2023-04-27T02:07:48;100773.34;;;3.86;67.91
16190;BME280;41754;51.498;7.540;2023-04-27T02:10:16;100776.34;;;3.84;67.89
16190;BME280;41754;51.498;7.540;2023-04-27T02:12:44;100787.50;;;4.10;66.73
16190;BME280;41754;51.498;7.540;2023-04-27T02:15:14;100785.06;;;3.64;66.53
16190;BME280;41754;51.498;7.540;2023-04-27T02:17:42;100791.25;;;3.82;67.02
16190;BME280;41754;51.498;7.540;2023-04-27T02:20:11;100783.69;;;3.84;67.01
16190;BME280;41754;51.498;7.540;2023-04-27T02:22:40;100785.81;;;3.82;66.70
16190;BME280;41754;51.498;7.540;2023-04-27T02:25:09;100784.06;;;3.70;66.77
16190;BME280;41754;51.498;7.540;2023-04-27T02:27:37;100786.69;;;3.65;67.41
16190;BME280;41754;51.498;7.540;2023-04-27T02:30:07;100792.63;;;3.40;68.14
16190;BME280;41754;51.498;7.540;2023-04-27T02:32:37;100776.78;;;3.76;67.89
16190;BME280;41754;51.498;7.540;2023-04-27T02:35:06;100785.28;;;3.41;68.54
16190;BME280;41754;51.498;7.540;2023-04-27T02:37:34;100774.75;;;3.66;67.94
16190;BME280;41754;51.498;7.540;2023-04-27T02:40:06;100780.47;;;3.92;66.92
16190;BME280;41754;51.498;7.540;2023-04-27T02:42:35;100778.72;;;3.81;67.02
16190;BME280;41754;51.498;7.540;2023-04-27T02:45:06;100790.00;;;3.67;68.39
16190;BME280;41754;51.498;7.540;2023-04-27T02:47:36;100779.75;;;3.74;68.71
16190;BME280;41754;51.498;7.540;2023-04-27T02:50:05;100782.53;;;3.80;68.49
16190;BME280;41754;51.498;7.540;2023-04-27T02:52:34;100783.97;;;3.87;67.51
16190;BME280;41754;51.498;7.540;2023-04-27T02:55:02;100778.09;;;3.73;67.58
16190;BME280;41754;51.498;7.540;2023-04-27T02:57:30;100765.56;;;3.72;66.84
16190;BME280;41754;51.498;7.540;2023-04-27T02:59:58;100768.84;;;3.53;66.99
16190;BME280;41754;51.498;7.540;2023-04-27T03:02:26;100760.31;;;3.44;67.46
16190;BME280;41754;51.498;7.540;2023-04-27T03:04:56;100770.13;;;3.45;67.20
16190;BME280;41754;51.498;7.540;2023-04-27T03:07:25;100766.00;;;3.42;67.79
16190;BME280;41754;51.498;7.540;2023-04-27T03:09:53;100770.13;;;3.45;67.99
16190;BME280;41754;51.498;7.540;2023-04-27T03:12:21;100767.91;;;3.42;68.00
16190;BME280;41754;51.498;7.540;2023-04-27T03:14:49;100766.50;;;3.39;68.68
16190;BME280;41754;51.498;7.540;2023-04-27T03:17:17;100761.75;;;3.30;68.95
16190;BME280;41754;51.498;7.540;2023-04-27T03:19:46;100762.03;;;3.50;67.90
16190;BME280;41754;51.498;7.540;2023-04-27T03:22:16;100760.91;;;3.29;67.85
16190;BME280;41754;51.498;7.540;2023-04-27T03:24:44;100759.94;;;3.35;68.25
16190;BME280;41754;51.498;7.540;2023-04-27T03:27:12;100758.16;;;3.07;68.98
16190;BME280;41754;51.498;7.540;2023-04-27T03:29:41;100765.50;;;3.07;69.37
16190;BME280;41754;51.498;7.540;2023-04-27T03:32:10;100757.31;;;3.24;68.68
16190;BME280;41754;51.498;7.540;2023-04-27T03:34:38;100755.44;;;3.24;68.42
16190;BME280;41754;51.498;7.540;2023-04-27T03:37:06;100753.88;;;3.11;68.78
16190;BME280;41754;51.498;7.540;2023-04-27T03:39:37;100755.84;;;3.16;69.13
16190;BME280;41754;51.498;7.540;2023-04-27T03:42:05;100758.97;;;3.25;68.82
16190;BME280;41754;51.498;7.540;2023-04-27T03:44:33;100760.22;;;3.17;69.04
16190;BME280;41754;51.498;7.540;2023-04-27T03:47:02;100757.13;;;3.08;68.93
16190;BME280;41754;51.498;7.540;2023-04-27T03:49:36;100763.44;;;3.14;68.27
16190;BME280;41754;51.498;7.540;2023-04-27T03:52:06;100770.88;;;3.02;68.43
16190;BME280;41754;51.498;7.540;2023-04-27T03:54:34;100770.72;;;2.92;68.89
16190;BME280;41754;51.498;7.540;2023-04-27T03:57:04;100778.66;;;2.81;69.42
16190;BME280;41754;51.498;7.540;2023-04-27T03:59:32;100783.56;;;2.96;69.43
16190;BME280;41754;51.498;7.540;2023-04-27T04:02:00;100780.41;;;3.04;68.39
16190;BME280;41754;51.498;7.540;2023-04-27T04:04:29;100777.44;;;2.89;69.46
16190;BME280;41754;51.498;7.540;2023-04-27T04:06:58;100789.38;;;2.88;70.29
16190;BME280;41754;51.498;7.540;2023-04-27T04:09:26;100780.75;;;2.91;70.09
16190;BME280;41754;51.498;7.540;2023-04-27T04:11:54;100776.94;;;2.75;69.86
16190;BME280;41754;51.498;7.540;2023-04-27T04:14:26;100776.63;;;2.72;70.11
16190;BME280;41754;51.498;7.540;2023-04-27T04:16:54;100787.31;;;2.78;69.44
16190;BME280;41754;51.498;7.540;2023-04-27T04:19:22;100781.22;;;2.88;69.26
16190;BME280;41754;51.498;7.540;2023-04-27T04:21:51;100794.97;;;2.65;70.26
16190;BME280;41754;51.498;7.540;2023-04-27T04:24:20;100804.94;;;2.76;70.66
16190;BME280;41754;51.498;7.540;2023-04-27T04:26:48;100807.69;;;3.09;70.12
16190;BME280;41754;51.498;7.540;2023-04-27T04:29:16;100806.47;;;3.00;69.47
16190;BME280;41754;51.498;7.540;2023-04-27T04:31:46;100798.06;;;3.02;69.84
16190;BME280;41754;51.498;7.540;2023-04-27T04:34:14;100807.25;;;2.84;70.63
16190;BME280;41754;51.498;7.540;2023-04-27T04:36:42;100800.94;;;2.95;70.11
16190;BME280;41754;51.498;7.540;2023-04-27T04:39:10;100806.06;;;3.08;69.31
16190;BME280;41754;51.498;7.540;2023-04-27T04:41:39;100806.28;;;3.24;68.20
16190;BME280;41754;51.498;7.540;2023-04-27T04:44:09;100807.72;;;3.31;67.37
16190;BME280;41754;51.498;7.540;2023-04-27T04:46:37;100797.59;;;3.27;67.01
16190;BME280;41754;51.498;7.540;2023-04-27T04:49:07;100804.28;;;3.36;66.89
16190;BME280;41754;51.498;7.540;2023-04-27T04:51:35;100799.66;;;3.36;66.48
16190;BME280;41754;51.498;7.540;2023-04-27T04:54:04;100794.56;;;3.23;67.25
16190;BME280;41754;51.498;7.540;2023-04-27T04:56:32;100793.00;;;3.27;67.69
16190;BME280;41754;51.498;7.540;2023-04-27T04:59:01;100788.66;;;3.48;66.75
16190;BME280;41754;51.498;7.540;2023-04-27T05:01:30;100794.56;;;3.84;66.17
16190;BME280;41754;51.498;7.540;2023-04-27T05:03:58;100793.03;;;3.93;65.60
16190;BME280;41754;51.498;7.540;2023-04-27T05:06:28;100797.16;;;3.95;65.92
16190;BME280;41754;51.498;7.540;2023-04-27T05:08:57;100795.34;;;4.06;66.18
16190;BME280;41754;51.498;7.540;2023-04-27T05:11:25;100797.06;;;4.12;66.41
16190;BME280;41754;51.498;7.540;2023-04-27T05:13:53;100797.47;;;3.99;66.52
16190;BME280;41754;51.498;7.540;2023-04-27T05:16:21;100796.84;;;4.19;66.90
16190;BME280;41754;51.498;7.540;2023-04-27T05:18:49;100800.56;;;4.61;65.63
16190;BME280;41754;51.498;7.540;2023-04-27T05:21:17;100807.25;;;4.49;65.32
16190;BME280;41754;51.498;7.540;2023-04-27T05:23:47;100810.38;;;4.35;65.81
16190;BME280;41754;51.498;7.540;2023-04-27T05:26:16;100811.03;;;4.75;65.07
16190;BME280;41754;51.498;7.540;2023-04-27T05:28:44;100807.44;;;4.69;64.77
16190;BME280;41754;51.498;7.540;2023-04-27T05:31:14;100809.78;;;4.87;64.88
16190;BME280;41754;51.498;7.540;2023-04-27T05:33:43;100811.69;;;5.29;63.71
16190;BME280;41754;51.498;7.540;2023-04-27T05:36:11;100813.06;;;5.69;63.13
16190;BME280;41754;51.498;7.540;2023-04-27T05:38:39;100821.78;;;5.66;61.75
16190;BME280;41754;51.498;7.540;2023-04-27T05:41:08;100818.56;;;5.79;61.51
16190;BME280;41754;51.498;7.540;2023-04-27T05:43:36;100826.06;;;6.09;61.01
16190;BME280;41754;51.498;7.540;2023-04-27T05:46:04;100828.00;;;6.08;59.95
16190;BME280;41754;51.498;7.540;2023-04-27T05:48:33;100826.41;;;6.38;59.71
16190;BME280;41754;51.498;7.540;2023-04-27T05:51:01;100829.19;;;6.53;59.62
16190;BME280;41754;51.498;7.540;2023-04-27T05:53:31;100833.81;;;6.53;58.40
16190;BME280;41754;51.498;7.540;2023-04-27T05:55:59;100839.88;;;6.75;57.94
16190;BME280;41754;51.498;7.540;2023-04-27T05:58:31;100845.63;;;6.89;57.38
16190;BME280;41754;51.498;7.540;2023-04-27T06:01:00;100844.56;;;7.05;56.56
16190;BME280;41754;51.498;7.540;2023-04-27T06:03:29;100845.09;;;6.87;55.66
16190;BME280;41754;51.498;7.540;2023-04-27T06:05:59;100850.84;;;6.95;55.48
16190;BME280;41754;51.498;7.540;2023-04-27T06:08:27;100848.91;;;7.01;55.57
16190;BME280;41754;51.498;7.540;2023-04-27T06:10:56;100853.31;;;7.38;54.52
16190;BME280;41754;51.498;7.540;2023-04-27T06:13:24;100844.53;;;7.46;53.71
16190;BME280;41754;51.498;7.540;2023-04-27T06:15:53;100843.44;;;7.52;53.19
16190;BME280;41754;51.498;7.540;2023-04-27T06:18:22;100842.28;;;7.73;52.39
16190;BME280;41754;51.498;7.540;2023-04-27T06:20:49;100846.81;;;8.08;52.19
16190;BME280;41754;51.498;7.540;2023-04-27T06:23:17;100839.09;;;8.15;50.71
16190;BME280;41754;51.498;7.540;2023-04-27T06:25:45;100842.88;;;8.30;50.16
16190;BME280;41754;51.498;7.540;2023-04-27T06:28:14;100843.50;;;8.61;49.15
16190;BME280;41754;51.498;7.540;2023-04-27T06:30:42;100846.94;;;8.37;49.22
16190;BME280;41754;51.498;7.540;2023-04-27T06:33:11;100851.81;;;8.51;48.41
16190;BME280;41754;51.498;7.540;2023-04-27T06:35:39;100856.41;;;8.11;48.50
16190;BME280;41754;51.498;7.540;2023-04-27T06:38:07;100847.06;;;8.61;47.70
16190;BME280;41754;51.498;7.540;2023-04-27T06:40:35;100849.97;;;8.36;47.05
16190;BME280;41754;51.498;7.540;2023-04-27T06:43:03;100850.34;;;8.14;47.16
16190;BME280;41754;51.498;7.540;2023-04-27T06:45:31;100847.72;;;8.92;46.12
16190;BME280;41754;51.498;7.540;2023-04-27T06:47:59;100845.28;;;8.86;46.55
16190;BME280;41754;51.498;7.540;2023-04-27T06:50:28;100847.75;;;8.38;45.87
16190;BME280;41754;51.498;7.540;2023-04-27T06:52:56;100850.78;;;8.41;45.31
16190;BME280;41754;51.498;7.540;2023-04-27T06:55:24;100842.44;;;8.57;43.77
16190;BME280;41754;51.498;7.540;2023-04-27T06:57:52;100846.25;;;8.66;43.72
16190;BME280;41754;51.498;7.540;2023-04-27T07:00:20;100832.59;;;8.95;42.69
16190;BME280;41754;51.498;7.540;2023-04-27T07:02:49;100839.56;;;9.16;41.91
16190;BME280;41754;51.498;7.540;2023-04-27T07:05:18;100832.91;;;8.88;41.82
16190;BME280;41754;51.498;7.540;2023-04-27T07:07:47;100835.53;;;9.61;41.29
16190;BME280;41754;51.498;7.540;2023-04-27T07:10:15;100828.81;;;9.97;41.07
16190;BME280;41754;51.498;7.540;2023-04-27T07:12:43;100827.38;;;9.80;39.69
16190;BME280;41754;51.498;7.540;2023-04-27T07:15:11;100832.50;;;9.87;40.42
16190;BME280;41754;51.498;7.540;2023-04-27T07:17:39;100833.16;;;9.26;40.70
16190;BME280;41754;51.498;7.540;2023-04-27T07:20:07;100818.06;;;9.23;40.76
16190;BME280;41754;51.498;7.540;2023-04-27T07:22:35;100824.31;;;9.58;40.05
16190;BME280;41754;51.498;7.540;2023-04-27T07:25:06;100826.16;;;9.68;39.72
16190;BME280;41754;51.498;7.540;2023-04-27T07:27:34;100826.88;;;9.97;38.98
16190;BME280;41754;51.498;7.540;2023-04-27T07:30:02;100827.72;;;10.21;39.01
16190;BME280;41754;51.498;7.540;2023-04-27T07:32:31;100820.22;;;10.46;38.86
16190;BME280;41754;51.498;7.540;2023-04-27T07:34:59;100814.47;;;11.13;37.81
16190;BME280;41754;51.498;7.540;2023-04-27T07:37:27;100816.56;;;10.69;37.88
16190;BME280;41754;51.498;7.540;2023-04-27T07:39:55;100821.47;;;10.72;36.71
16190;BME280;41754;51.498;7.540;2023-04-27T07:42:26;100830.28;;;10.88;37.52
16190;BME280;41754;51.498;7.540;2023-04-27T07:44:55;100823.72;;;10.70;37.62
16190;BME280;41754;51.498;7.540;2023-04-27T07:47:23;100824.53;;;10.52;38.46
16190;BME280;41754;51.498;7.540;2023-04-27T07:49:51;100818.41;;;10.36;38.84
16190;BME280;41754;51.498;7.540;2023-04-27T07:52:18;100828.88;;;10.15;38.78
16190;BME280;41754;51.498;7.540;2023-04-27T07:54:46;100825.19;;;10.63;39.14
16190;BME280;41754;51.498;7.540;2023-04-27T07:57:14;100828.44;;;11.02;39.19
16190;BME280;41754;51.498;7.540;2023-04-27T07:59:44;100821.34;;;11.15;38.91
16190;BME280;41754;51.498;7.540;2023-04-27T08:02:12;100831.41;;;11.06;39.54
16190;BME280;41754;51.498;7.540;2023-04-27T08:04:45;100827.75;;;11.24;39.54
16190;BME280;41754;51.498;7.540;2023-04-27T08:07:14;100825.19;;;11.47;38.18
16190;BME280;41754;51.498;7.540;2023-04-27T08:09:43;100829.81;;;11.65;37.29
16190;BME280;41754;51.498;7.540;2023-04-27T08:12:11;100830.34;;;11.34;37.51
16190;BME280;41754;51.498;7.540;2023-04-27T08:14:39;100823.50;;;11.32;38.44
16190;BME280;41754;51.498;7.540;2023-04-27T08:17:09;100819.41;;;11.89;38.32
16190;BME280;41754;51.498;7.540;2023-04-27T08:19:37;100828.88;;;12.11;37.26
16190;BME280;41754;51.498;7.540;2023-04-27T08:22:05;100829.81;;;12.06;37.16
16190;BME280;41754;51.498;7.540;2023-04-27T08:24:34;100825.13;;;12.07;37.96
16190;BME280;41754;51.498;7.540;2023-04-27T08:27:02;100826.66;;;11.85;36.80
16190;BME280;41754;51.498;7.540;2023-04-27T08:29:30;100831.47;;;11.33;36.66
16190;BME280;41754;51.498;7.540;2023-04-27T08:32:00;100824.69;;;11.99;35.60
16190;BME280;41754;51.498;7.540;2023-04-27T08:34:30;100818.47;;;11.94;36.65
16190;BME280;41754;51.498;7.540;2023-04-27T08:36:58;100828.47;;;11.49;37.51
16190;BME280;41754;51.498;7.540;2023-04-27T08:39:26;100818.41;;;12.63;36.07
16190;BME280;41754;51.498;7.540;2023-04-27T08:41:54;100824.06;;;11.48;37.25
16190;BME280;41754;51.498;7.540;2023-04-27T08:44:22;100814.41;;;11.91;37.32
16190;BME280;41754;51.498;7.540;2023-04-27T08:46:50;100814.91;;;11.93;36.70
16190;BME280;41754;51.498;7.540;2023-04-27T08:49:18;100809.81;;;12.37;35.23
16190;BME280;41754;51.498;7.540;2023-04-27T08:51:49;100811.00;;;12.58;34.98
16190;BME280;41754;51.498;7.540;2023-04-27T08:54:18;100802.00;;;12.66;33.85
16190;BME280;41754;51.498;7.540;2023-04-27T08:56:46;100816.94;;;12.15;34.54
16190;BME280;41754;51.498;7.540;2023-04-27T08:59:14;100814.53;;;12.36;34.45
16190;BME280;41754;51.498;7.540;2023-04-27T09:01:43;100810.72;;;11.68;35.56
16190;BME280;41754;51.498;7.540;2023-04-27T09:04:12;100822.84;;;12.58;35.43
16190;BME280;41754;51.498;7.540;2023-04-27T09:06:41;100821.53;;;13.45;33.27
16190;BME280;41754;51.498;7.540;2023-04-27T09:09:20;100803.66;;;12.53;34.69
16190;BME280;41754;51.498;7.540;2023-04-27T09:11:49;100821.13;;;12.26;35.49
16190;BME280;41754;51.498;7.540;2023-04-27T09:14:18;100805.91;;;12.65;35.23
16190;BME280;41754;51.498;7.540;2023-04-27T09:16:52;100807.56;;;12.52;34.28
16190;BME280;41754;51.498;7.540;2023-04-27T09:19:25;100810.91;;;11.72;32.55
16190;BME280;41754;51.498;7.540;2023-04-27T09:22:07;100815.59;;;12.13;32.39
16190;BME280;41754;51.498;7.540;2023-04-27T09:24:38;100815.59;;;12.26;32.70
16190;BME280;41754;51.498;7.540;2023-04-27T09:27:06;100809.25;;;12.12;33.22
16190;BME280;41754;51.498;7.540;2023-04-27T09:29:36;100806.22;;;12.86;32.18
16190;BME280;41754;51.498;7.540;2023-04-27T09:32:14;100799.22;;;13.11;31.01
16190;BME280;41754;51.498;7.540;2023-04-27T09:34:43;100782.97;;;13.09;30.71
16190;BME280;41754;51.498;7.540;2023-04-27T09:37:11;100787.16;;;13.29;30.41
16190;BME280;41754;51.498;7.540;2023-04-27T09:39:43;100779.22;;;13.36;29.95
16190;BME280;41754;51.498;7.540;2023-04-27T09:42:11;100785.47;;;12.52;31.73
16190;BME280;41754;51.498;7.540;2023-04-27T09:44:41;100779.63;;;12.18;29.50
16190;BME280;41754;51.498;7.540;2023-04-27T09:47:09;100778.34;;;12.96;28.29
16190;BME280;41754;51.498;7.540;2023-04-27T09:49:37;100779.72;;;13.07;29.12
16190;BME280;41754;51.498;7.540;2023-04-27T09:52:05;100773.13;;;12.95;29.47
16190;BME280;41754;51.498;7.540;2023-04-27T09:54:34;100770.53;;;13.21;29.29
16190;BME280;41754;51.498;7.540;2023-04-27T09:57:12;100764.03;;;12.94;29.36
16190;BME280;41754;51.498;7.540;2023-04-27T09:59:55;100768.66;;;13.69;29.37
16190;BME280;41754;51.498;7.540;2023-04-27T10:02:40;100772.97;;;13.53;29.56
16190;BME280;41754;51.498;7.540;2023-04-27T10:05:45;100768.72;;;13.87;29.13
16190;BME280;41754;51.498;7.540;2023-04-27T10:08:17;100763.19;;;13.87;29.92
16190;BME280;41754;51.498;7.540;2023-04-27T10:10:47;100763.25;;;14.73;30.01
16190;BME280;41754;51.498;7.540;2023-04-27T10:13:24;100761.13;;;14.36;28.93
16190;BME280;41754;51.498;7.540;2023-04-27T10:15:53;100770.28;;;14.79;27.72
16190;BME280;41754;51.498;7.540;2023-04-27T10:18:25;100768.63;;;14.52;28.35
16190;BME280;41754;51.498;7.540;2023-04-27T10:20:54;100770.16;;;13.84;28.51
16190;BME280;41754;51.498;7.540;2023-04-27T10:23:23;100763.25;;;13.64;27.35
16190;BME280;41754;51.498;7.540;2023-04-27T10:25:53;100760.81;;;14.28;29.39
16190;BME280;41754;51.498;7.540;2023-04-27T10:28:22;100757.06;;;14.94;29.07
16190;BME280;41754;51.498;7.540;2023-04-27T10:30:50;100754.28;;;14.68;28.01
16190;BME280;41754;51.498;7.540;2023-04-27T10:33:21;100751.38;;;14.90;28.50
16190;BME280;41754;51.498;7.540;2023-04-27T10:35:55;100752.03;;;14.78;29.47
16190;BME280;41754;51.498;7.540;2023-04-27T10:38:27;100743.22;;;14.33;27.16
16190;BME280;41754;51.498;7.540;2023-04-27T10:40:56;100738.34;;;14.65;27.19
16190;BME280;41754;51.498;7.540;2023-04-27T10:43:29;100739.47;;;14.20;29.00
16190;BME280;41754;51.498;7.540;2023-04-27T10:46:06;100735.13;;;15.18;29.15
16190;BME280;41754;51.498;7.540;2023-04-27T10:48:34;100729.22;;;14.64;26.01
16190;BME280;41754;51.498;7.540;2023-04-27T10:51:02;100724.47;;;15.37;29.46
16190;BME280;41754;51.498;7.540;2023-04-27T10:53:33;100718.00;;;16.76;24.83
16190;BME280;41754;51.498;7.540;2023-04-27T10:56:01;100721.06;;;16.41;26.11
16190;BME280;41754;51.498;7.540;2023-04-27T10:58:32;100713.88;;;17.06;24.72
16190;BME280;41754;51.498;7.540;2023-04-27T11:01:22;100724.38;;;18.75;24.68
16190;BME280;41754;51.498;7.540;2023-04-27T11:03:54;100705.28;;;17.57;22.67
16190;BME280;41754;51.498;7.540;2023-04-27T11:06:22;100711.06;;;18.68;23.10
16190;BME280;41754;51.498;7.540;2023-04-27T11:08:50;100709.38;;;19.23;21.61
16190;BME280;41754;51.498;7.540;2023-04-27T11:11:18;100703.00;;;18.95;23.20
16190;BME280;41754;51.498;7.540;2023-04-27T11:13:48;100698.06;;;20.18;21.38
16190;BME280;41754;51.498;7.540;2023-04-27T11:16:18;100705.09;;;18.98;21.37
16190;BME280;41754;51.498;7.540;2023-04-27T11:18:46;100704.22;;;19.41;23.88
16190;BME280;41754;51.498;7.540;2023-04-27T11:21:15;100702.25;;;17.86;25.48
16190;BME280;41754;51.498;7.540;2023-04-27T11:23:46;100704.59;;;17.72;24.55
16190;BME280;41754;51.498;7.540;2023-04-27T11:26:15;100696.53;;;18.91;22.47
16190;BME280;41754;51.498;7.540;2023-04-27T11:28:47;100696.69;;;19.10;22.67
16190;BME280;41754;51.498;7.540;2023-04-27T11:31:25;100699.84;;;19.09;22.35
16190;BME280;41754;51.498;7.540;2023-04-27T11:33:53;100699.50;;;17.62;22.69
16190;BME280;41754;51.498;7.540;2023-04-27T11:36:22;100695.63;;;18.71;24.13
16190;BME280;41754;51.498;7.540;2023-04-27T11:38:56;100696.34;;;17.63;25.78
16190;BME280;41754;51.498;7.540;2023-04-27T11:41:32;100697.72;;;17.45;22.64
16190;BME280;41754;51.498;7.540;2023-04-27T11:44:05;100708.59;;;18.51;22.21
16190;BME280;41754;51.498;7.540;2023-04-27T11:46:35;100704.38;;;18.85;23.17
16190;BME280;41754;51.498;7.540;2023-04-27T11:49:05;100701.63;;;19.17;21.41
16190;BME280;41754;51.498;7.540;2023-04-27T11:51:34;100695.63;;;20.94;21.20
16190;BME280;41754;51.498;7.540;2023-04-27T11:54:04;100690.31;;;20.89;20.19
16190;BME280;41754;51.498;7.540;2023-04-27T11:56:33;100691.28;;;21.19;21.97
16190;BME280;41754;51.498;7.540;2023-04-27T11:59:02;100686.06;;;20.18;19.97
16190;BME280;41754;51.498;7.540;2023-04-27T12:01:32;100689.50;;;19.92;22.77
16190;BME280;41754;51.498;7.540;2023-04-27T12:04:05;100686.22;;;21.06;20.41
16190;BME280;41754;51.498;7.540;2023-04-27T12:06:33;100694.28;;;22.06;19.16
16190;BME280;41754;51.498;7.540;2023-04-27T12:09:02;100691.38;;;21.26;22.10
16190;BME280;41754;51.498;7.540;2023-04-27T12:11:31;100681.38;;;21.75;20.49
16190;BME280;41754;51.498;7.540;2023-04-27T12:13:59;100683.81;;;21.76;19.61
16190;BME280;41754;51.498;7.540;2023-04-27T12:16:27;100675.53;;;23.18;18.95
16190;BME280;41754;51.498;7.540;2023-04-27T12:18:55;100679.59;;;23.24;18.14
16190;BME280;41754;51.498;7.540;2023-04-27T12:21:25;100678.44;;;23.80;17.30
16190;BME280;41754;51.498;7.540;2023-04-27T12:23:53;100669.94;;;24.42;18.29
16190;BME280;41754;51.498;7.540;2023-04-27T12:26:21;100659.63;;;24.96;16.37
16190;BME280;41754;51.498;7.540;2023-04-27T12:28:49;100660.84;;;25.55;15.54
16190;BME280;41754;51.498;7.540;2023-04-27T12:31:17;100658.22;;;23.56;18.33
16190;BME280;41754;51.498;7.540;2023-04-27T12:33:53;100660.81;;;23.35;19.16
16190;BME280;41754;51.498;7.540;2023-04-27T12:36:21;100647.53;;;24.77;18.44
16190;BME280;41754;51.498;7.540;2023-04-27T12:38:50;100649.16;;;24.86;17.20
16190;BME280;41754;51.498;7.540;2023-04-27T12:41:19;100651.72;;;21.44;18.17
16190;BME280;41754;51.498;7.540;2023-04-27T12:43:47;100658.28;;;22.75;18.04
16190;BME280;41754;51.498;7.540;2023-04-27T12:46:15;100660.22;;;23.12;18.62
16190;BME280;41754;51.498;7.540;2023-04-27T12:48:43;100652.81;;;25.18;16.78
16190;BME280;41754;51.498;7.540;2023-04-27T12:51:12;100661.19;;;25.75;16.96
16190;BME280;41754;51.498;7.540;2023-04-27T12:53:40;100650.44;;;26.65;14.64
16190;BME280;41754;51.498;7.540;2023-04-27T12:56:09;100646.66;;;26.09;16.31
16190;BME280;41754;51.498;7.540;2023-04-27T12:58:38;100646.38;;;25.43;16.13
16190;BME280;41754;51.498;7.540;2023-04-27T13:01:07;100646.78;;;25.45;16.34
16190;BME280;41754;51.498;7.540;2023-04-27T13:03:40;100638.69;;;27.29;14.98
16190;BME280;41754;51.498;7.540;2023-04-27T13:06:08;100640.28;;;25.90;16.05